sensor_id;sensor_type;location;lat;lon;timestamp;P1;durP1;ratioP1;P2;durP2;ratioP2
42124;SDS011;27787;44.594;11.046;2023-12-04T00:01:28;17.45;;;6.53;;
42124;SDS011;27787;44.594;11.046;2023-12-04T00:04:13;13.13;;;6.25;;
42124;SDS011;27787;44.594;11.046;2023-12-04T00:06:57;14.90;;;6.90;;
42124;SDS011;27787;44.594;11.046;2023-12-04T00:09:41;16.25;;;6.90;;
42124;SDS011;27787;44.594;11.046;2023-12-04T00:12:25;17.67;;;7.25;;
42124;SDS011;27787;44.594;11.046;2023-12-04T00:15:09;12.13;;;6.78;;
42124;SDS011;27787;44.594;11.046;2023-12-04T00:17:53;16.95;;;7.20;;
42124;SDS011;27787;44.594;11.046;2023-12-04T00:20:37;13.80;;;6.55;;
42124;SDS011;27787;44.594;11.046;2023-12-04T00:23:22;16.02;;;7.50;;
42124;SDS011;27787;44.594;11.046;2023-12-04T00:26:06;15.60;;;7.30;;
42124;SDS011;27787;44.594;11.046;2023-12-04T00:28:51;18.10;;;7.55;;
42124;SDS011;27787;44.594;11.046;2023-12-04T00:31:35;16.83;;;7.15;;
42124;SDS011;27787;44.594;11.046;2023-12-04T00:34:19;15.85;;;7.03;;
42124;SDS011;27787;44.594;11.046;2023-12-04T00:37:03;19.77;;;7.88;;
42124;SDS011;27787;44.594;11.046;2023-12-04T00:39:48;15.95;;;7.18;;
42124;SDS011;27787;44.594;11.046;2023-12-04T00:42:32;14.50;;;7.20;;
42124;SDS011;27787;44.594;11.046;2023-12-04T00:45:16;19.05;;;7.75;;
42124;SDS011;27787;44.594;11.046;2023-12-04T00:48:01;18.92;;;8.02;;
42124;SDS011;27787;44.594;11.046;2023-12-04T00:50:46;16.55;;;7.30;;
42124;SDS011;27787;44.594;11.046;2023-12-04T00:53:30;14.30;;;7.38;;
42124;SDS011;27787;44.594;11.046;2023-12-04T00:56:14;17.23;;;8.00;;
42124;SDS011;27787;44.594;11.046;2023-12-04T00:58:58;15.38;;;6.55;;
42124;SDS011;27787;44.594;11.046;2023-12-04T01:01:42;14.05;;;7.28;;
42124;SDS011;27787;44.594;11.046;2023-12-04T01:04:26;17.40;;;8.77;;
42124;SDS011;27787;44.594;11.046;2023-12-04T01:07:10;15.93;;;8.40;;
42124;SDS011;27787;44.594;11.046;2023-12-04T01:09:54;18.35;;;8.38;;
42124;SDS011;27787;44.594;11.046;2023-12-04T01:12:39;18.52;;;8.75;;
42124;SDS011;27787;44.594;11.046;2023-12-04T01:15:23;17.60;;;8.80;;
42124;SDS011;27787;44.594;11.046;2023-12-04T01:18:07;17.58;;;9.05;;
42124;SDS011;27787;44.594;11.046;2023-12-04T01:20:51;23.65;;;9.82;;
42124;SDS011;27787;44.594;11.046;2023-12-04T01:23:35;22.73;;;9.15;;
42124;SDS011;27787;44.594;11.046;2023-12-04T01:26:19;17.85;;;8.90;;
42124;SDS011;27787;44.594;11.046;2023-12-04T01:29:04;19.15;;;9.32;;
42124;SDS011;27787;44.594;11.046;2023-12-04T01:31:48;23.10;;;9.43;;
42124;SDS011;27787;44.594;11.046;2023-12-04T01:34:32;23.73;;;9.43;;
42124;SDS011;27787;44.594;11.046;2023-12-04T01:37:16;24.05;;;9.95;;
42124;SDS011;27787;44.594;11.046;2023-12-04T01:40:00;26.88;;;9.80;;
42124;SDS011;27787;44.594;11.046;2023-12-04T01:42:44;22.67;;;10.35;;
42124;SDS011;27787;44.594;11.046;2023-12-04T01:45:28;22.98;;;9.68;;
42124;SDS011;27787;44.594;11.046;2023-12-04T01:48:13;18.00;;;8.68;;
42124;SDS011;27787;44.594;11.046;2023-12-04T01:50:58;20.70;;;9.82;;
42124;SDS011;27787;44.594;11.046;2023-12-04T01:53:46;18.40;;;8.45;;
42124;SDS011;27787;44.594;11.046;2023-12-04T01:56:31;17.80;;;8.93;;
42124;SDS011;27787;44.594;11.046;2023-12-04T01:59:18;18.50;;;9.13;;
42124;SDS011;27787;44.594;11.046;2023-12-04T02:02:02;22.58;;;9.38;;
42124;SDS011;27787;44.594;11.046;2023-12-04T02:04:48;19.58;;;9.32;;
42124;SDS011;27787;44.594;11.046;2023-12-04T02:07:32;23.65;;;8.45;;
42124;SDS011;27787;44.594;11.046;2023-12-04T02:10:16;16.80;;;9.10;;
42124;SDS011;27787;44.594;11.046;2023-12-04T02:13:00;20.38;;;9.07;;
42124;SDS011;27787;44.594;11.046;2023-12-04T02:15:45;14.95;;;7.60;;
42124;SDS011;27787;44.594;11.046;2023-12-04T02:18:33;17.92;;;7.97;;
42124;SDS011;27787;44.594;11.046;2023-12-04T02:21:17;19.10;;;8.75;;
42124;SDS011;27787;44.594;11.046;2023-12-04T02:24:01;15.95;;;7.25;;
42124;SDS011;27787;44.594;11.046;2023-12-04T02:26:53;14.27;;;6.57;;
42124;SDS011;27787;44.594;11.046;2023-12-04T02:29:46;14.13;;;6.33;;
42124;SDS011;27787;44.594;11.046;2023-12-04T02:32:35;13.18;;;6.57;;
42124;SDS011;27787;44.594;11.046;2023-12-04T02:35:24;12.15;;;6.20;;
42124;SDS011;27787;44.594;11.046;2023-12-04T02:38:11;11.48;;;5.75;;
42124;SDS011;27787;44.594;11.046;2023-12-04T02:40:56;14.75;;;6.20;;
42124;SDS011;27787;44.594;11.046;2023-12-04T02:43:40;8.63;;;5.13;;
42124;SDS011;27787;44.594;11.046;2023-12-04T02:46:24;11.57;;;4.57;;
42124;SDS011;27787;44.594;11.046;2023-12-04T02:49:09;11.10;;;4.95;;
42124;SDS011;27787;44.594;11.046;2023-12-04T02:51:53;8.93;;;4.78;;
42124;SDS011;27787;44.594;11.046;2023-12-04T02:54:37;10.82;;;5.60;;
42124;SDS011;27787;44.594;11.046;2023-12-04T02:57:22;11.20;;;5.75;;
42124;SDS011;27787;44.594;11.046;2023-12-04T03:00:06;11.18;;;5.00;;
42124;SDS011;27787;44.594;11.046;2023-12-04T03:02:51;10.80;;;5.18;;
42124;SDS011;27787;44.594;11.046;2023-12-04T03:05:35;9.15;;;4.75;;
42124;SDS011;27787;44.594;11.046;2023-12-04T03:08:19;12.10;;;5.90;;
42124;SDS011;27787;44.594;11.046;2023-12-04T03:11:03;10.02;;;5.13;;
42124;SDS011;27787;44.594;11.046;2023-12-04T03:13:48;10.15;;;5.35;;
42124;SDS011;27787;44.594;11.046;2023-12-04T03:16:32;7.57;;;4.45;;
42124;SDS011;27787;44.594;11.046;2023-12-04T03:19:16;17.38;;;4.75;;
42124;SDS011;27787;44.594;11.046;2023-12-04T03:22:00;12.43;;;5.07;;
42124;SDS011;27787;44.594;11.046;2023-12-04T03:24:45;8.40;;;4.63;;
42124;SDS011;27787;44.594;11.046;2023-12-04T03:27:30;9.80;;;5.05;;
42124;SDS011;27787;44.594;11.046;2023-12-04T03:30:14;9.27;;;4.22;;
42124;SDS011;27787;44.594;11.046;2023-12-04T03:32:58;7.43;;;4.35;;
42124;SDS011;27787;44.594;11.046;2023-12-04T03:35:42;11.07;;;4.25;;
42124;SDS011;27787;44.594;11.046;2023-12-04T03:38:27;8.63;;;4.10;;
42124;SDS011;27787;44.594;11.046;2023-12-04T03:41:14;10.50;;;4.13;;
42124;SDS011;27787;44.594;11.046;2023-12-04T03:43:59;8.23;;;4.38;;
42124;SDS011;27787;44.594;11.046;2023-12-04T03:46:43;9.00;;;4.20;;
42124;SDS011;27787;44.594;11.046;2023-12-04T03:49:27;10.27;;;4.35;;
42124;SDS011;27787;44.594;11.046;2023-12-04T03:52:11;10.27;;;4.53;;
42124;SDS011;27787;44.594;11.046;2023-12-04T03:54:55;8.25;;;3.95;;
42124;SDS011;27787;44.594;11.046;2023-12-04T03:57:39;10.00;;;4.90;;
42124;SDS011;27787;44.594;11.046;2023-12-04T04:00:23;8.82;;;3.90;;
42124;SDS011;27787;44.594;11.046;2023-12-04T04:03:07;7.68;;;4.70;;
42124;SDS011;27787;44.594;11.046;2023-12-04T04:05:52;7.57;;;4.15;;
42124;SDS011;27787;44.594;11.046;2023-12-04T04:08:36;8.40;;;4.57;;
42124;SDS011;27787;44.594;11.046;2023-12-04T04:11:20;11.25;;;4.50;;
42124;SDS011;27787;44.594;11.046;2023-12-04T04:14:04;9.45;;;4.53;;
42124;SDS011;27787;44.594;11.046;2023-12-04T04:16:48;12.10;;;4.05;;
42124;SDS011;27787;44.594;11.046;2023-12-04T04:19:32;13.55;;;4.72;;
42124;SDS011;27787;44.594;11.046;2023-12-04T04:22:16;10.63;;;4.40;;
42124;SDS011;27787;44.594;11.046;2023-12-04T04:25:00;11.35;;;4.15;;
42124;SDS011;27787;44.594;11.046;2023-12-04T04:27:44;10.35;;;4.68;;
42124;SDS011;27787;44.594;11.046;2023-12-04T04:30:28;10.18;;;4.78;;
42124;SDS011;27787;44.594;11.046;2023-12-04T04:33:13;9.15;;;4.65;;
42124;SDS011;27787;44.594;11.046;2023-12-04T04:35:57;9.85;;;4.93;;
42124;SDS011;27787;44.594;11.046;2023-12-04T04:38:41;12.18;;;5.50;;
42124;SDS011;27787;44.594;11.046;2023-12-04T04:41:25;14.95;;;5.90;;
42124;SDS011;27787;44.594;11.046;2023-12-04T04:44:09;16.92;;;6.65;;
42124;SDS011;27787;44.594;11.046;2023-12-04T04:46:54;12.13;;;5.90;;
42124;SDS011;27787;44.594;11.046;2023-12-04T04:49:38;11.43;;;6.72;;
42124;SDS011;27787;44.594;11.046;2023-12-04T04:52:21;13.48;;;6.40;;
42124;SDS011;27787;44.594;11.046;2023-12-04T04:55:05;16.45;;;6.63;;
42124;SDS011;27787;44.594;11.046;2023-12-04T04:57:50;14.38;;;5.85;;
42124;SDS011;27787;44.594;11.046;2023-12-04T05:00:34;14.68;;;6.63;;
42124;SDS011;27787;44.594;11.046;2023-12-04T05:03:18;14.02;;;8.02;;
42124;SDS011;27787;44.594;11.046;2023-12-04T05:06:02;19.52;;;6.60;;
42124;SDS011;27787;44.594;11.046;2023-12-04T05:08:46;18.00;;;7.53;;
42124;SDS011;27787;44.594;11.046;2023-12-04T05:11:30;13.30;;;6.95;;
42124;SDS011;27787;44.594;11.046;2023-12-04T05:14:15;19.30;;;7.03;;
42124;SDS011;27787;44.594;11.046;2023-12-04T05:16:59;19.92;;;7.60;;
42124;SDS011;27787;44.594;11.046;2023-12-04T05:19:43;17.85;;;7.47;;
42124;SDS011;27787;44.594;11.046;2023-12-04T05:22:27;20.33;;;7.38;;
42124;SDS011;27787;44.594;11.046;2023-12-04T05:25:11;17.98;;;8.73;;
42124;SDS011;27787;44.594;11.046;2023-12-04T05:27:55;16.85;;;8.18;;
42124;SDS011;27787;44.594;11.046;2023-12-04T05:30:39;20.02;;;8.02;;
42124;SDS011;27787;44.594;11.046;2023-12-04T05:33:23;18.70;;;7.75;;
42124;SDS011;27787;44.594;11.046;2023-12-04T05:36:08;14.65;;;8.15;;
42124;SDS011;27787;44.594;11.046;2023-12-04T05:38:52;17.13;;;7.18;;
42124;SDS011;27787;44.594;11.046;2023-12-04T05:41:37;23.20;;;7.38;;
42124;SDS011;27787;44.594;11.046;2023-12-04T05:44:21;24.80;;;7.57;;
42124;SDS011;27787;44.594;11.046;2023-12-04T05:47:05;17.15;;;7.15;;
42124;SDS011;27787;44.594;11.046;2023-12-04T05:49:52;17.95;;;7.40;;
42124;SDS011;27787;44.594;11.046;2023-12-04T05:52:35;15.00;;;7.03;;
42124;SDS011;27787;44.594;11.046;2023-12-04T05:55:19;19.77;;;7.28;;
42124;SDS011;27787;44.594;11.046;2023-12-04T05:58:04;19.15;;;7.72;;
42124;SDS011;27787;44.594;11.046;2023-12-04T06:00:48;17.10;;;7.35;;
42124;SDS011;27787;44.594;11.046;2023-12-04T06:03:32;19.65;;;8.77;;
42124;SDS011;27787;44.594;11.046;2023-12-04T06:06:16;23.33;;;8.43;;
42124;SDS011;27787;44.594;11.046;2023-12-04T06:09:00;22.23;;;9.98;;
42124;SDS011;27787;44.594;11.046;2023-12-04T06:11:45;29.77;;;10.82;;
42124;SDS011;27787;44.594;11.046;2023-12-04T06:14:29;21.60;;;10.30;;
42124;SDS011;27787;44.594;11.046;2023-12-04T06:17:12;21.77;;;9.43;;
42124;SDS011;27787;44.594;11.046;2023-12-04T06:19:56;31.75;;;10.82;;
42124;SDS011;27787;44.594;11.046;2023-12-04T06:22:41;15.35;;;8.80;;
42124;SDS011;27787;44.594;11.046;2023-12-04T06:25:25;20.90;;;9.23;;
42124;SDS011;27787;44.594;11.046;2023-12-04T06:28:09;26.42;;;10.52;;
42124;SDS011;27787;44.594;11.046;2023-12-04T06:30:54;21.80;;;9.70;;
42124;SDS011;27787;44.594;11.046;2023-12-04T06:33:38;24.23;;;10.23;;
42124;SDS011;27787;44.594;11.046;2023-12-04T06:36:23;34.67;;;10.60;;
42124;SDS011;27787;44.594;11.046;2023-12-04T06:39:09;19.20;;;8.52;;
42124;SDS011;27787;44.594;11.046;2023-12-04T06:41:56;22.85;;;9.45;;
42124;SDS011;27787;44.594;11.046;2023-12-04T06:44:40;25.17;;;10.60;;
42124;SDS011;27787;44.594;11.046;2023-12-04T06:47:24;32.35;;;10.65;;
42124;SDS011;27787;44.594;11.046;2023-12-04T06:50:09;22.63;;;12.02;;
42124;SDS011;27787;44.594;11.046;2023-12-04T06:52:53;18.70;;;10.70;;
42124;SDS011;27787;44.594;11.046;2023-12-04T06:55:37;22.63;;;10.88;;
42124;SDS011;27787;44.594;11.046;2023-12-04T06:58:21;19.02;;;9.75;;
42124;SDS011;27787;44.594;11.046;2023-12-04T07:01:05;25.95;;;11.68;;
42124;SDS011;27787;44.594;11.046;2023-12-04T07:03:49;28.65;;;12.27;;
42124;SDS011;27787;44.594;11.046;2023-12-04T07:06:34;21.08;;;11.27;;
42124;SDS011;27787;44.594;11.046;2023-12-04T07:09:19;24.97;;;11.87;;
42124;SDS011;27787;44.594;11.046;2023-12-04T07:12:04;46.33;;;16.93;;
42124;SDS011;27787;44.594;11.046;2023-12-04T07:14:49;29.92;;;13.10;;
42124;SDS011;27787;44.594;11.046;2023-12-04T07:17:35;33.00;;;15.30;;
42124;SDS011;27787;44.594;11.046;2023-12-04T07:20:20;28.33;;;12.75;;
42124;SDS011;27787;44.594;11.046;2023-12-04T07:23:04;22.95;;;11.68;;
42124;SDS011;27787;44.594;11.046;2023-12-04T07:25:47;20.02;;;11.63;;
42124;SDS011;27787;44.594;11.046;2023-12-04T07:28:32;21.60;;;10.70;;
42124;SDS011;27787;44.594;11.046;2023-12-04T07:31:17;22.48;;;11.40;;
42124;SDS011;27787;44.594;11.046;2023-12-04T07:34:01;20.40;;;10.23;;
42124;SDS011;27787;44.594;11.046;2023-12-04T07:36:46;24.38;;;11.20;;
42124;SDS011;27787;44.594;11.046;2023-12-04T07:39:32;22.95;;;11.50;;
42124;SDS011;27787;44.594;11.046;2023-12-04T07:42:16;22.40;;;10.63;;
42124;SDS011;27787;44.594;11.046;2023-12-04T07:45:00;26.77;;;12.27;;
42124;SDS011;27787;44.594;11.046;2023-12-04T07:47:43;31.60;;;11.32;;
42124;SDS011;27787;44.594;11.046;2023-12-04T07:50:27;31.75;;;11.32;;
42124;SDS011;27787;44.594;11.046;2023-12-04T07:53:11;22.95;;;11.27;;
42124;SDS011;27787;44.594;11.046;2023-12-04T07:55:57;27.85;;;10.65;;
42124;SDS011;27787;44.594;11.046;2023-12-04T07:58:41;23.50;;;9.93;;
42124;SDS011;27787;44.594;11.046;2023-12-04T08:01:25;22.83;;;10.25;;
42124;SDS011;27787;44.594;11.046;2023-12-04T22:31:19;25.93;;;12.63;;
42124;SDS011;27787;44.594;11.046;2023-12-04T22:34:03;27.27;;;12.93;;
42124;SDS011;27787;44.594;11.046;2023-12-04T22:36:47;30.63;;;15.00;;
42124;SDS011;27787;44.594;11.046;2023-12-04T22:39:31;34.67;;;15.23;;
42124;SDS011;27787;44.594;11.046;2023-12-04T22:42:15;34.65;;;15.05;;
42124;SDS011;27787;44.594;11.046;2023-12-04T22:44:59;30.70;;;14.10;;
42124;SDS011;27787;44.594;11.046;2023-12-04T22:47:44;26.50;;;13.27;;
42124;SDS011;27787;44.594;11.046;2023-12-04T22:50:28;27.50;;;13.38;;
42124;SDS011;27787;44.594;11.046;2023-12-04T22:53:12;25.05;;;12.95;;
42124;SDS011;27787;44.594;11.046;2023-12-04T22:55:56;37.08;;;13.80;;
42124;SDS011;27787;44.594;11.046;2023-12-04T22:58:41;31.42;;;13.93;;
42124;SDS011;27787;44.594;11.046;2023-12-04T23:01:24;34.83;;;16.90;;
42124;SDS011;27787;44.594;11.046;2023-12-04T23:04:08;30.38;;;14.73;;
42124;SDS011;27787;44.594;11.046;2023-12-04T23:06:53;27.93;;;13.90;;
42124;SDS011;27787;44.594;11.046;2023-12-04T23:09:37;29.35;;;14.05;;
42124;SDS011;27787;44.594;11.046;2023-12-04T23:12:22;28.27;;;13.73;;
42124;SDS011;27787;44.594;11.046;2023-12-04T23:15:06;28.38;;;13.63;;
42124;SDS011;27787;44.594;11.046;2023-12-04T23:17:51;34.55;;;14.00;;
42124;SDS011;27787;44.594;11.046;2023-12-04T23:20:35;29.30;;;13.85;;
42124;SDS011;27787;44.594;11.046;2023-12-04T23:23:19;22.65;;;12.02;;
42124;SDS011;27787;44.594;11.046;2023-12-04T23:26:03;25.65;;;13.35;;
42124;SDS011;27787;44.594;11.046;2023-12-04T23:28:47;28.13;;;13.38;;
42124;SDS011;27787;44.594;11.046;2023-12-04T23:31:32;25.25;;;13.20;;
42124;SDS011;27787;44.594;11.046;2023-12-04T23:34:16;25.60;;;13.40;;
42124;SDS011;27787;44.594;11.046;2023-12-04T23:37:00;27.52;;;13.43;;
42124;SDS011;27787;44.594;11.046;2023-12-04T23:39:44;28.10;;;14.00;;
42124;SDS011;27787;44.594;11.046;2023-12-04T23:42:28;23.35;;;11.45;;
42124;SDS011;27787;44.594;11.046;2023-12-04T23:45:12;24.70;;;12.35;;
42124;SDS011;27787;44.594;11.046;2023-12-04T23:47:56;27.40;;;13.32;;
42124;SDS011;27787;44.594;11.046;2023-12-04T23:50:40;25.63;;;12.55;;
42124;SDS011;27787;44.594;11.046;2023-12-04T23:53:24;28.08;;;13.35;;
42124;SDS011;27787;44.594;11.046;2023-12-04T23:56:09;24.63;;;12.70;;
42124;SDS011;27787;44.594;11.046;2023-12-04T23:58:53;26.45;;;12.68;;
